»·PEaware :: SOO579 KSAN-KLAS

SOO579 :: KSAN-KLAS

FLIGHT INFORMATION

Flight Status: Arrived
Operator: Unknown
More flights by this operator :: More flights under this callsign
Pilot: Max H. (24278)
Aircraft: Unknown
(B77F)
More flights by this aircraft type
Origin: KSAN San Diego Intl-Lindbergh
United States
Destination: KLAS McCarran Intl
United States
More flights between these airports :: More routes between these airports
Route: +PADRZ2 CHKNN SEBBY YELAH MISEN KEPEC6
File this flight plan on PilotEdge
Remarks:
Altitude:
(Current/Filed)
38,000ft
Speed:
(Current/Filed)
350kts
Departed: 28-Apr-19 02:53 PM
Arrived: 28-Apr-19 03:47 PM
Distance/Time
Traveled:
225nm/0:53
Distance/Time
To Go:
Arrived

Flight Plot

Page will automatically refresh every two minutes.

Flight plan parsing failed; only flown route is shown


Map Options




Map Legend


Flown Route
Filed Route
Departure Airport
Arrival Airport
Navaid (VOR, NDB)
Fix

Horizontal Profiles

Position Reports

Time Latitude Longitude Heading Altitude Ground
Speed
28-Apr-19 14:16 32.737922 -117.184665 5 28ft 0kts
28-Apr-19 14:18 32.736653 -117.183734 5 28ft 0kts
28-Apr-19 14:19 32.736653 -117.183734 5 28ft 0kts
28-Apr-19 14:20 32.736653 -117.183734 5 28ft 0kts
28-Apr-19 14:21 32.736653 -117.183734 5 28ft 0kts
28-Apr-19 14:22 32.736653 -117.183734 5 28ft 0kts
28-Apr-19 14:23 32.736653 -117.183734 5 28ft 0kts
28-Apr-19 14:24 32.736653 -117.183734 5 28ft 0kts
28-Apr-19 14:25 32.736653 -117.183734 5 28ft 0kts
28-Apr-19 14:26 32.736653 -117.183734 5 28ft 0kts
28-Apr-19 14:27 32.736653 -117.183734 5 28ft 0kts
28-Apr-19 14:28 32.736653 -117.183734 5 28ft 0kts
28-Apr-19 14:29 32.736653 -117.183734 5 28ft 0kts
28-Apr-19 14:30 32.736653 -117.183734 5 28ft 0kts
28-Apr-19 14:31 32.736653 -117.183734 5 28ft 0kts
28-Apr-19 14:32 32.736653 -117.183734 5 28ft 0kts
28-Apr-19 14:33 32.736653 -117.183734 5 28ft 0kts
28-Apr-19 14:34 32.736653 -117.183734 5 28ft 0kts
28-Apr-19 14:35 32.736237 -117.183795 9 28ft 2kts
28-Apr-19 14:36 32.736065 -117.183829 10 28ft 0kts
28-Apr-19 14:37 32.736065 -117.183829 10 28ft 0kts
28-Apr-19 14:38 32.736065 -117.183829 10 28ft 0kts
28-Apr-19 14:39 32.736066 -117.183829 10 28ft 0kts
28-Apr-19 14:40 32.736229 -117.184866 239 28ft 1kts
28-Apr-19 14:41 32.735028 -117.184211 147 28ft 8kts
28-Apr-19 14:42 32.734704 -117.183971 148 28ft 0kts
28-Apr-19 14:43 32.734703 -117.183971 148 28ft 0kts
28-Apr-19 14:44 32.734245 -117.183630 147 28ft 13kts
28-Apr-19 14:45 32.732420 -117.180970 98 28ft 4kts
28-Apr-19 14:46 32.732111 -117.179147 105 28ft 6kts
28-Apr-19 14:47 32.731561 -117.176951 106 28ft 0kts
28-Apr-19 14:48 32.731441 -117.176478 106 28ft 0kts
28-Apr-19 14:49 32.731148 -117.175442 115 28ft 4kts
28-Apr-19 14:50 32.730971 -117.175203 148 28ft 0kts
28-Apr-19 14:51 32.730265 -117.176075 284 28ft 26kts
28-Apr-19 14:52 32.746498 -117.230695 300 3092ft 248kts
28-Apr-19 14:53 32.789511 -117.302314 305 8433ft 283kts
28-Apr-19 14:54 32.841256 -117.382708 304 12611ft 339kts
28-Apr-19 14:55 32.902773 -117.478397 303 15008ft 374kts
28-Apr-19 14:56 32.966176 -117.576909 303 16654ft 379kts
28-Apr-19 14:57 33.032132 -117.680126 302 20958ft 404kts
28-Apr-19 14:58 33.112822 -117.780337 315 22953ft 429kts
28-Apr-19 14:59 33.203526 -117.871660 314 22933ft 428kts
28-Apr-19 15:00 33.296765 -117.962458 315 24793ft 441kts
28-Apr-19 15:01 33.394166 -118.057237 314 28244ft 465kts
28-Apr-19 15:02 33.496701 -118.158098 313 31286ft 486kts
28-Apr-19 15:03 33.605713 -118.253757 325 34604ft 493kts
28-Apr-19 15:04 33.733700 -118.312646 349 36904ft 514kts
28-Apr-19 15:05 33.862947 -118.248989 51 36914ft 522kts
28-Apr-19 15:06 33.912051 -118.089606 72 36894ft 516kts
28-Apr-19 15:07 33.991082 -117.944440 55 36881ft 521kts
28-Apr-19 15:08 34.075176 -117.801739 57 36895ft 521kts
28-Apr-19 15:09 34.165148 -117.664600 51 36898ft 523kts
28-Apr-19 15:10 34.258057 -117.529951 52 36896ft 522kts
28-Apr-19 15:11 34.350538 -117.394360 51 36896ft 522kts
28-Apr-19 15:12 34.440722 -117.261563 51 36892ft 500kts
28-Apr-19 15:13 34.527826 -117.132524 51 35333ft 484kts
28-Apr-19 15:14 34.612137 -117.007137 51 33221ft 472kts
28-Apr-19 15:15 34.694421 -116.884841 51 31678ft 462kts
28-Apr-19 15:16 34.774525 -116.764614 51 30244ft 451kts
28-Apr-19 15:17 34.852096 -116.649383 46 27984ft 431kts
28-Apr-19 15:18 34.939841 -116.561654 36 26517ft 404kts
28-Apr-19 15:19 35.028956 -116.475385 37 25032ft 404kts
28-Apr-19 15:20 35.115052 -116.389824 41 23833ft 394kts
28-Apr-19 15:21 35.192895 -116.291528 45 22135ft 399kts
28-Apr-19 15:22 35.268740 -116.195028 44 20666ft 386kts
28-Apr-19 15:23 35.342363 -116.102019 43 19225ft 374kts
28-Apr-19 15:24 35.414147 -116.011985 43 17842ft 362kts
28-Apr-19 15:25 35.483243 -115.924992 43 16785ft 348kts
28-Apr-19 15:26 35.549550 -115.840781 43 15467ft 339kts
28-Apr-19 15:27 35.614523 -115.757893 43 14196ft 332kts
28-Apr-19 15:28 35.677987 -115.676877 44 13080ft 323kts
28-Apr-19 15:29 35.734166 -115.605086 43 12992ft 274kts
28-Apr-19 15:30 35.800774 -115.570376 357 12997ft 263kts
28-Apr-19 15:31 35.879632 -115.568760 358 12993ft 310kts
28-Apr-19 15:32 35.965305 -115.552181 32 12983ft 326kts
28-Apr-19 15:34 36.006989 -115.454284 71 11893ft 317kts
28-Apr-19 15:35 36.028319 -115.354706 87 10976ft 292kts
28-Apr-19 15:36 36.022895 -115.260654 95 9725ft 260kts
28-Apr-19 15:37 36.016614 -115.173489 94 9003ft 254kts
28-Apr-19 15:38 36.010724 -115.087313 95 8041ft 250kts
28-Apr-19 15:39 36.005703 -115.001297 95 8008ft 250kts
28-Apr-19 15:40 36.000458 -114.914571 94 7951ft 253kts
28-Apr-19 15:41 36.053991 -114.880305 349 7341ft 244kts
28-Apr-19 15:42 36.082526 -114.934718 229 5995ft 238kts
28-Apr-19 15:43 36.071838 -114.989205 317 4461ft 215kts
28-Apr-19 15:44 36.073650 -115.041515 266 3038ft 123kts
28-Apr-19 15:45 36.073724 -115.086218 268 2737ft 131kts
28-Apr-19 15:46 36.073618 -115.130634 269 2197ft 117kts
28-Apr-19 15:47 36.074436 -115.145026 296 2194ft 0kts
28-Apr-19 15:48 36.075192 -115.146377 336 2194ft 10kts
28-Apr-19 15:49 36.077668 -115.146822 324 2194ft 12kts
28-Apr-19 15:50 36.078328 -115.144749 90 2194ft 19kts
28-Apr-19 15:50 36.078261 -115.140874 90 2194ft 11kts
28-Apr-19 15:52 36.078287 -115.136743 87 2194ft 8kts
28-Apr-19 15:53 36.078220 -115.131570 90 2194ft 23kts
28-Apr-19 15:54 36.078921 -115.126221 348 2195ft 22kts
28-Apr-19 15:54 36.080815 -115.124848 68 2195ft 14kts
28-Apr-19 15:55 36.082468 -115.124181 2 2195ft 0kts
28-Apr-19 15:57 36.082468 -115.124181 2 2195ft 0kts
28-Apr-19 15:58 36.082468 -115.124181 2 2195ft 0kts
28-Apr-19 15:58 36.082468 -115.124181 2 2195ft 0kts
28-Apr-19 15:59 36.082468 -115.124181 2 2195ft 0kts
28-Apr-19 16:00 36.082468 -115.124181 2 2195ft 0kts

Navigation Log

Ident Type
Flight plan parsing failed, navigation log unavailable